sensor_id;sensor_type;location;lat;lon;timestamp;temperature;humidity
71649;SHT31;70112;45.624;11.760;2023-08-01T00:00:50;24.65;72.03
71649;SHT31;70112;45.624;11.760;2023-08-01T00:03:16;24.69;71.90
71649;SHT31;70112;45.624;11.760;2023-08-01T00:05:42;24.69;71.86
71649;SHT31;70112;45.624;11.760;2023-08-01T00:08:13;24.68;71.94
71649;SHT31;70112;45.624;11.760;2023-08-01T00:10:39;24.68;72.01
71649;SHT31;70112;45.624;11.760;2023-08-01T00:13:06;24.65;72.01
71649;SHT31;70112;45.624;11.760;2023-08-01T00:15:33;24.61;72.01
71649;SHT31;70112;45.624;11.760;2023-08-01T00:17:59;24.59;72.04
71649;SHT31;70112;45.624;11.760;2023-08-01T00:20:24;24.59;72.02
71649;SHT31;70112;45.624;11.760;2023-08-01T00:22:50;24.58;72.07
71649;SHT31;70112;45.624;11.760;2023-08-01T00:25:15;24.59;72.17
71649;SHT31;70112;45.624;11.760;2023-08-01T00:27:42;24.58;72.25
71649;SHT31;70112;45.624;11.760;2023-08-01T00:30:08;24.58;72.33
71649;SHT31;70112;45.624;11.760;2023-08-01T00:32:34;24.58;72.40
71649;SHT31;70112;45.624;11.760;2023-08-01T00:35:01;24.59;72.40
71649;SHT31;70112;45.624;11.760;2023-08-01T00:37:26;24.59;72.40
71649;SHT31;70112;45.624;11.760;2023-08-01T00:39:52;24.57;72.50
71649;SHT31;70112;45.624;11.760;2023-08-01T00:42:17;24.55;72.60
71649;SHT31;70112;45.624;11.760;2023-08-01T00:44:43;24.53;72.60
71649;SHT31;70112;45.624;11.760;2023-08-01T00:47:08;24.52;72.62
71649;SHT31;70112;45.624;11.760;2023-08-01T00:49:35;24.52;72.68
71649;SHT31;70112;45.624;11.760;2023-08-01T00:52:01;24.52;72.72
71649;SHT31;70112;45.624;11.760;2023-08-01T00:54:27;24.50;72.87
71649;SHT31;70112;45.624;11.760;2023-08-01T00:56:52;24.48;72.88
71649;SHT31;70112;45.624;11.760;2023-08-01T00:59:18;24.47;72.92
71649;SHT31;70112;45.624;11.760;2023-08-01T01:01:44;24.48;72.81
71649;SHT31;70112;45.624;11.760;2023-08-01T01:04:09;24.49;72.56
71649;SHT31;70112;45.624;11.760;2023-08-01T01:06:44;24.48;72.54
71649;SHT31;70112;45.624;11.760;2023-08-01T01:09:19;24.45;72.60
71649;SHT31;70112;45.624;11.760;2023-08-01T01:11:45;24.42;72.61
71649;SHT31;70112;45.624;11.760;2023-08-01T01:14:12;24.40;72.67
71649;SHT31;70112;45.624;11.760;2023-08-01T01:16:37;24.38;72.72
71649;SHT31;70112;45.624;11.760;2023-08-01T01:19:06;24.38;72.77
71649;SHT31;70112;45.624;11.760;2023-08-01T01:21:37;24.38;72.77
71649;SHT31;70112;45.624;11.760;2023-08-01T01:24:05;24.37;72.72
71649;SHT31;70112;45.624;11.760;2023-08-01T01:26:33;24.36;72.86
71649;SHT31;70112;45.624;11.760;2023-08-01T01:28:59;24.37;72.95
71649;SHT31;70112;45.624;11.760;2023-08-01T01:31:26;24.37;72.88
71649;SHT31;70112;45.624;11.760;2023-08-01T01:33:52;24.39;72.71
71649;SHT31;70112;45.624;11.760;2023-08-01T01:36:18;24.40;72.69
71649;SHT31;70112;45.624;11.760;2023-08-01T01:38:43;24.41;72.86
71649;SHT31;70112;45.624;11.760;2023-08-01T01:41:09;24.41;72.90
71649;SHT31;70112;45.624;11.760;2023-08-01T01:43:36;24.40;72.93
71649;SHT31;70112;45.624;11.760;2023-08-01T01:46:02;24.40;72.97
71649;SHT31;70112;45.624;11.760;2023-08-01T01:48:28;24.38;72.99
71649;SHT31;70112;45.624;11.760;2023-08-01T01:50:54;24.36;72.99
71649;SHT31;70112;45.624;11.760;2023-08-01T01:53:19;24.36;72.90
71649;SHT31;70112;45.624;11.760;2023-08-01T01:55:44;24.35;72.84
71649;SHT31;70112;45.624;11.760;2023-08-01T01:58:10;24.36;72.78
71649;SHT31;70112;45.624;11.760;2023-08-01T02:00:35;24.36;72.63
71649;SHT31;70112;45.624;11.760;2023-08-01T02:03:01;24.37;72.59
71649;SHT31;70112;45.624;11.760;2023-08-01T02:05:28;24.38;72.44
71649;SHT31;70112;45.624;11.760;2023-08-01T02:07:55;24.40;72.22
71649;SHT31;70112;45.624;11.760;2023-08-01T02:10:20;24.41;72.00
71649;SHT31;70112;45.624;11.760;2023-08-01T02:12:46;24.41;71.93
71649;SHT31;70112;45.624;11.760;2023-08-01T02:15:11;24.40;72.13
71649;SHT31;70112;45.624;11.760;2023-08-01T02:17:37;24.37;72.18
71649;SHT31;70112;45.624;11.760;2023-08-01T02:20:02;24.35;72.16
71649;SHT31;70112;45.624;11.760;2023-08-01T02:22:28;24.34;72.13
71649;SHT31;70112;45.624;11.760;2023-08-01T02:24:54;24.33;72.09
71649;SHT31;70112;45.624;11.760;2023-08-01T02:27:19;24.32;72.03
71649;SHT31;70112;45.624;11.760;2023-08-01T02:29:45;24.30;72.10
71649;SHT31;70112;45.624;11.760;2023-08-01T02:32:10;24.28;72.21
71649;SHT31;70112;45.624;11.760;2023-08-01T02:34:36;24.24;72.03
71649;SHT31;70112;45.624;11.760;2023-08-01T02:37:02;24.19;72.09
71649;SHT31;70112;45.624;11.760;2023-08-01T02:39:27;24.15;72.16
71649;SHT31;70112;45.624;11.760;2023-08-01T02:41:53;24.12;72.24
71649;SHT31;70112;45.624;11.760;2023-08-01T02:44:18;24.09;72.35
71649;SHT31;70112;45.624;11.760;2023-08-01T02:46:43;24.08;72.44
71649;SHT31;70112;45.624;11.760;2023-08-01T02:49:09;24.07;72.61
71649;SHT31;70112;45.624;11.760;2023-08-01T02:51:34;24.06;72.69
71649;SHT31;70112;45.624;11.760;2023-08-01T02:54:00;24.04;72.70
71649;SHT31;70112;45.624;11.760;2023-08-01T02:56:25;24.02;72.72
71649;SHT31;70112;45.624;11.760;2023-08-01T02:58:53;24.01;72.78
71649;SHT31;70112;45.624;11.760;2023-08-01T03:01:20;23.97;72.75
71649;SHT31;70112;45.624;11.760;2023-08-01T03:03:45;23.93;72.75
71649;SHT31;70112;45.624;11.760;2023-08-01T03:06:11;23.90;72.79
71649;SHT31;70112;45.624;11.760;2023-08-01T03:08:38;23.86;72.86
71649;SHT31;70112;45.624;11.760;2023-08-01T03:11:05;23.82;72.98
71649;SHT31;70112;45.624;11.760;2023-08-01T03:13:30;23.79;73.05
71649;SHT31;70112;45.624;11.760;2023-08-01T03:15:56;23.76;73.11
71649;SHT31;70112;45.624;11.760;2023-08-01T03:18:21;23.73;73.22
71649;SHT31;70112;45.624;11.760;2023-08-01T03:20:47;23.72;73.28
71649;SHT31;70112;45.624;11.760;2023-08-01T03:23:13;23.72;73.37
71649;SHT31;70112;45.624;11.760;2023-08-01T03:25:38;23.72;73.37
71649;SHT31;70112;45.624;11.760;2023-08-01T03:28:04;23.73;73.37
71649;SHT31;70112;45.624;11.760;2023-08-01T03:30:31;23.73;73.40
71649;SHT31;70112;45.624;11.760;2023-08-01T03:32:57;23.73;73.48
71649;SHT31;70112;45.624;11.760;2023-08-01T03:35:23;23.76;73.52
71649;SHT31;70112;45.624;11.760;2023-08-01T03:37:49;23.78;73.50
71649;SHT31;70112;45.624;11.760;2023-08-01T03:40:14;23.81;73.45
71649;SHT31;70112;45.624;11.760;2023-08-01T03:42:40;23.86;73.40
71649;SHT31;70112;45.624;11.760;2023-08-01T03:45:06;23.89;73.38
71649;SHT31;70112;45.624;11.760;2023-08-01T03:47:32;23.92;73.27
71649;SHT31;70112;45.624;11.760;2023-08-01T03:49:58;23.95;73.24
71649;SHT31;70112;45.624;11.760;2023-08-01T03:52:24;23.96;73.43
71649;SHT31;70112;45.624;11.760;2023-08-01T03:54:53;23.96;73.62
71649;SHT31;70112;45.624;11.760;2023-08-01T03:57:19;23.96;73.60
71649;SHT31;70112;45.624;11.760;2023-08-01T03:59:46;23.97;73.58
71649;SHT31;70112;45.624;11.760;2023-08-01T04:02:11;23.99;73.52
71649;SHT31;70112;45.624;11.760;2023-08-01T04:04:37;24.00;73.48
71649;SHT31;70112;45.624;11.760;2023-08-01T04:07:02;24.00;73.49
71649;SHT31;70112;45.624;11.760;2023-08-01T04:09:29;24.01;73.27
71649;SHT31;70112;45.624;11.760;2023-08-01T04:11:55;24.03;73.02
71649;SHT31;70112;45.624;11.760;2023-08-01T04:14:20;24.05;73.13
71649;SHT31;70112;45.624;11.760;2023-08-01T04:16:46;23.96;73.57
71649;SHT31;70112;45.624;11.760;2023-08-01T04:19:11;23.91;73.84
71649;SHT31;70112;45.624;11.760;2023-08-01T04:21:38;23.91;73.97
71649;SHT31;70112;45.624;11.760;2023-08-01T04:24:03;23.93;74.11
71649;SHT31;70112;45.624;11.760;2023-08-01T04:26:29;23.93;74.26
71649;SHT31;70112;45.624;11.760;2023-08-01T04:28:55;23.97;74.26
71649;SHT31;70112;45.624;11.760;2023-08-01T04:31:20;23.98;74.13
71649;SHT31;70112;45.624;11.760;2023-08-01T04:33:46;24.00;74.22
71649;SHT31;70112;45.624;11.760;2023-08-01T04:36:11;24.00;74.56
71649;SHT31;70112;45.624;11.760;2023-08-01T04:38:37;24.00;74.56
71649;SHT31;70112;45.624;11.760;2023-08-01T04:41:02;24.00;74.54
71649;SHT31;70112;45.624;11.760;2023-08-01T04:43:28;24.02;74.64
71649;SHT31;70112;45.624;11.760;2023-08-01T04:45:53;24.03;74.79
71649;SHT31;70112;45.624;11.760;2023-08-01T04:48:19;24.05;74.85
71649;SHT31;70112;45.624;11.760;2023-08-01T04:50:44;24.09;74.92
71649;SHT31;70112;45.624;11.760;2023-08-01T04:53:10;24.12;74.86
71649;SHT31;70112;45.624;11.760;2023-08-01T04:55:36;24.17;74.61
71649;SHT31;70112;45.624;11.760;2023-08-01T04:58:02;24.24;74.57
71649;SHT31;70112;45.624;11.760;2023-08-01T05:00:27;24.27;74.70
71649;SHT31;70112;45.624;11.760;2023-08-01T05:02:53;24.29;74.89
71649;SHT31;70112;45.624;11.760;2023-08-01T05:05:18;24.31;75.01
71649;SHT31;70112;45.624;11.760;2023-08-01T05:07:44;24.32;74.97
71649;SHT31;70112;45.624;11.760;2023-08-01T05:10:09;24.31;74.81
71649;SHT31;70112;45.624;11.760;2023-08-01T05:12:35;24.31;74.98
71649;SHT31;70112;45.624;11.760;2023-08-01T05:15:00;24.29;74.09
71649;SHT31;70112;45.624;11.760;2023-08-01T05:17:26;24.29;73.47
71649;SHT31;70112;45.624;11.760;2023-08-01T05:19:51;24.28;73.24
71649;SHT31;70112;45.624;11.760;2023-08-01T05:22:17;24.27;73.18
71649;SHT31;70112;45.624;11.760;2023-08-01T05:24:42;24.28;73.20
71649;SHT31;70112;45.624;11.760;2023-08-01T05:27:08;24.27;73.23
71649;SHT31;70112;45.624;11.760;2023-08-01T05:29:33;24.28;73.31
71649;SHT31;70112;45.624;11.760;2023-08-01T05:31:59;24.28;73.41
71649;SHT31;70112;45.624;11.760;2023-08-01T05:34:24;24.30;73.52
71649;SHT31;70112;45.624;11.760;2023-08-01T05:36:50;24.31;73.80
71649;SHT31;70112;45.624;11.760;2023-08-01T05:39:15;24.31;74.02
71649;SHT31;70112;45.624;11.760;2023-08-01T05:41:42;24.34;74.44
71649;SHT31;70112;45.624;11.760;2023-08-01T05:44:08;24.35;74.67
71649;SHT31;70112;45.624;11.760;2023-08-01T05:46:34;24.38;74.60
71649;SHT31;70112;45.624;11.760;2023-08-01T05:49:00;24.40;74.27
71649;SHT31;70112;45.624;11.760;2023-08-01T05:51:25;24.41;74.06
71649;SHT31;70112;45.624;11.760;2023-08-01T05:53:51;24.41;73.97
71649;SHT31;70112;45.624;11.760;2023-08-01T05:56:16;24.42;74.04
71649;SHT31;70112;45.624;11.760;2023-08-01T05:58:42;24.42;74.09
71649;SHT31;70112;45.624;11.760;2023-08-01T06:01:09;24.45;74.04
71649;SHT31;70112;45.624;11.760;2023-08-01T06:03:37;24.45;74.08
71649;SHT31;70112;45.624;11.760;2023-08-01T06:06:03;24.48;74.01
71649;SHT31;70112;45.624;11.760;2023-08-01T06:08:29;24.48;73.94
71649;SHT31;70112;45.624;11.760;2023-08-01T06:10:55;24.51;73.84
71649;SHT31;70112;45.624;11.760;2023-08-01T06:13:21;24.54;73.79
71649;SHT31;70112;45.624;11.760;2023-08-01T06:15:46;24.57;73.90
71649;SHT31;70112;45.624;11.760;2023-08-01T06:18:12;24.57;74.06
71649;SHT31;70112;45.624;11.760;2023-08-01T06:20:37;24.51;74.21
71649;SHT31;70112;45.624;11.760;2023-08-01T06:23:03;24.39;74.62
71649;SHT31;70112;45.624;11.760;2023-08-01T06:25:29;24.31;74.91
71649;SHT31;70112;45.624;11.760;2023-08-01T06:27:54;24.29;74.93
71649;SHT31;70112;45.624;11.760;2023-08-01T06:30:20;24.26;74.85
71649;SHT31;70112;45.624;11.760;2023-08-01T06:32:45;24.25;74.87
71649;SHT31;70112;45.624;11.760;2023-08-01T06:35:11;24.20;75.01
71649;SHT31;70112;45.624;11.760;2023-08-01T06:37:36;24.18;75.17
71649;SHT31;70112;45.624;11.760;2023-08-01T06:40:02;24.17;75.32
71649;SHT31;70112;45.624;11.760;2023-08-01T06:42:29;24.17;75.68
71649;SHT31;70112;45.624;11.760;2023-08-01T06:44:54;24.16;75.97
71649;SHT31;70112;45.624;11.760;2023-08-01T06:47:20;24.16;76.09
71649;SHT31;70112;45.624;11.760;2023-08-01T06:49:45;24.16;76.20
71649;SHT31;70112;45.624;11.760;2023-08-01T06:52:11;24.19;76.00
71649;SHT31;70112;45.624;11.760;2023-08-01T06:54:36;24.21;75.83
71649;SHT31;70112;45.624;11.760;2023-08-01T06:57:02;24.23;75.54
71649;SHT31;70112;45.624;11.760;2023-08-01T06:59:28;24.26;75.30
71649;SHT31;70112;45.624;11.760;2023-08-01T07:01:55;24.28;75.42
71649;SHT31;70112;45.624;11.760;2023-08-01T07:04:20;24.28;75.50
71649;SHT31;70112;45.624;11.760;2023-08-01T07:06:46;24.28;75.60
71649;SHT31;70112;45.624;11.760;2023-08-01T07:09:11;24.29;75.63
71649;SHT31;70112;45.624;11.760;2023-08-01T07:11:37;24.31;75.68
71649;SHT31;70112;45.624;11.760;2023-08-01T07:14:02;24.33;75.71
71649;SHT31;70112;45.624;11.760;2023-08-01T07:16:28;24.34;75.82
71649;SHT31;70112;45.624;11.760;2023-08-01T07:18:54;24.34;75.97
71649;SHT31;70112;45.624;11.760;2023-08-01T07:21:20;24.35;76.14
71649;SHT31;70112;45.624;11.760;2023-08-01T07:23:46;24.38;76.29
71649;SHT31;70112;45.624;11.760;2023-08-01T07:26:13;24.40;76.42
71649;SHT31;70112;45.624;11.760;2023-08-01T07:28:38;24.42;76.57
71649;SHT31;70112;45.624;11.760;2023-08-01T07:31:05;24.44;76.60
71649;SHT31;70112;45.624;11.760;2023-08-01T07:33:32;24.44;76.63
71649;SHT31;70112;45.624;11.760;2023-08-01T07:35:59;24.45;76.66
71649;SHT31;70112;45.624;11.760;2023-08-01T07:38:25;24.47;76.57
71649;SHT31;70112;45.624;11.760;2023-08-01T07:40:54;24.48;76.21
71649;SHT31;70112;45.624;11.760;2023-08-01T07:43:20;24.51;76.05
71649;SHT31;70112;45.624;11.760;2023-08-01T07:45:46;24.55;76.27
71649;SHT31;70112;45.624;11.760;2023-08-01T07:48:11;24.58;76.36
71649;SHT31;70112;45.624;11.760;2023-08-01T07:50:37;24.60;76.40
71649;SHT31;70112;45.624;11.760;2023-08-01T07:53:03;24.61;76.10
71649;SHT31;70112;45.624;11.760;2023-08-01T07:55:28;24.62;76.13
71649;SHT31;70112;45.624;11.760;2023-08-01T07:57:54;24.62;76.16
71649;SHT31;70112;45.624;11.760;2023-08-01T08:00:19;24.65;76.20
71649;SHT31;70112;45.624;11.760;2023-08-01T08:02:45;24.66;76.32
71649;SHT31;70112;45.624;11.760;2023-08-01T08:05:11;24.69;76.41
71649;SHT31;70112;45.624;11.760;2023-08-01T08:07:37;24.72;76.49
71649;SHT31;70112;45.624;11.760;2023-08-01T08:10:04;24.74;76.40
71649;SHT31;70112;45.624;11.760;2023-08-01T08:12:31;24.78;76.38
71649;SHT31;70112;45.624;11.760;2023-08-01T08:14:57;24.81;76.46
71649;SHT31;70112;45.624;11.760;2023-08-01T08:17:23;24.87;76.24
71649;SHT31;70112;45.624;11.760;2023-08-01T08:19:48;24.91;76.23
71649;SHT31;70112;45.624;11.760;2023-08-01T08:22:14;24.89;76.01
71649;SHT31;70112;45.624;11.760;2023-08-01T08:24:40;24.90;76.04
71649;SHT31;70112;45.624;11.760;2023-08-01T08:27:05;24.91;75.79
71649;SHT31;70112;45.624;11.760;2023-08-01T08:29:31;24.92;75.56
71649;SHT31;70112;45.624;11.760;2023-08-01T08:31:58;24.94;75.39
71649;SHT31;70112;45.624;11.760;2023-08-01T08:34:24;24.96;75.30
71649;SHT31;70112;45.624;11.760;2023-08-01T08:36:50;24.96;75.19
71649;SHT31;70112;45.624;11.760;2023-08-01T08:39:16;24.94;75.11
71649;SHT31;70112;45.624;11.760;2023-08-01T08:41:45;24.95;75.00
71649;SHT31;70112;45.624;11.760;2023-08-01T08:44:16;24.95;74.98
71649;SHT31;70112;45.624;11.760;2023-08-01T08:46:44;24.97;75.10
71649;SHT31;70112;45.624;11.760;2023-08-01T08:49:15;25.00;75.25
71649;SHT31;70112;45.624;11.760;2023-08-01T08:51:41;25.04;75.16
71649;SHT31;70112;45.624;11.760;2023-08-01T08:54:09;25.07;74.66
71649;SHT31;70112;45.624;11.760;2023-08-01T08:56:35;25.12;74.43
71649;SHT31;70112;45.624;11.760;2023-08-01T08:59:01;25.18;74.37
71649;SHT31;70112;45.624;11.760;2023-08-01T09:01:27;25.21;73.88
71649;SHT31;70112;45.624;11.760;2023-08-01T09:03:52;25.24;73.61
71649;SHT31;70112;45.624;11.760;2023-08-01T09:06:21;25.25;73.82
71649;SHT31;70112;45.624;11.760;2023-08-01T09:09:18;25.28;73.96
71649;SHT31;70112;45.624;11.760;2023-08-01T09:11:47;25.33;73.65
71649;SHT31;70112;45.624;11.760;2023-08-01T09:14:16;25.38;73.45
71649;SHT31;70112;45.624;11.760;2023-08-01T09:16:42;25.43;73.30
71649;SHT31;70112;45.624;11.760;2023-08-01T09:19:09;25.47;73.19
71649;SHT31;70112;45.624;11.760;2023-08-01T09:21:38;25.53;73.16
71649;SHT31;70112;45.624;11.760;2023-08-01T09:24:07;25.59;73.16
71649;SHT31;70112;45.624;11.760;2023-08-01T09:26:34;25.64;72.82
71649;SHT31;70112;45.624;11.760;2023-08-01T09:29:00;25.71;72.65
71649;SHT31;70112;45.624;11.760;2023-08-01T09:31:35;25.83;72.42
71649;SHT31;70112;45.624;11.760;2023-08-01T09:34:03;25.97;72.16
71649;SHT31;70112;45.624;11.760;2023-08-01T09:36:31;26.07;71.75
71649;SHT31;70112;45.624;11.760;2023-08-01T09:38:59;26.16;71.25
71649;SHT31;70112;45.624;11.760;2023-08-01T09:41:28;26.22;71.02
71649;SHT31;70112;45.624;11.760;2023-08-01T09:43:55;26.31;71.14
71649;SHT31;70112;45.624;11.760;2023-08-01T09:46:21;26.41;71.19
71649;SHT31;70112;45.624;11.760;2023-08-01T09:48:46;26.54;70.89
71649;SHT31;70112;45.624;11.760;2023-08-01T09:51:13;26.68;70.44
71649;SHT31;70112;45.624;11.760;2023-08-01T09:53:50;26.81;70.26
71649;SHT31;70112;45.624;11.760;2023-08-01T09:56:21;26.96;69.61
71649;SHT31;70112;45.624;11.760;2023-08-01T09:58:50;27.07;69.10
71649;SHT31;70112;45.624;11.760;2023-08-01T10:01:18;27.16;68.59
71649;SHT31;70112;45.624;11.760;2023-08-01T10:03:48;27.16;68.16
71649;SHT31;70112;45.624;11.760;2023-08-01T10:06:19;27.16;68.54
71649;SHT31;70112;45.624;11.760;2023-08-01T10:08:47;27.16;68.37
71649;SHT31;70112;45.624;11.760;2023-08-01T10:11:17;27.10;68.42
71649;SHT31;70112;45.624;11.760;2023-08-01T10:13:46;27.08;68.14
71649;SHT31;70112;45.624;11.760;2023-08-01T10:16:12;27.06;67.39
71649;SHT31;70112;45.624;11.760;2023-08-01T10:18:39;27.06;67.46
71649;SHT31;70112;45.624;11.760;2023-08-01T10:21:06;27.08;67.32
71649;SHT31;70112;45.624;11.760;2023-08-01T10:23:35;27.14;66.70
71649;SHT31;70112;45.624;11.760;2023-08-01T10:26:03;27.18;66.67
71649;SHT31;70112;45.624;11.760;2023-08-01T10:28:35;27.22;66.33
71649;SHT31;70112;45.624;11.760;2023-08-01T10:31:10;27.27;66.08
71649;SHT31;70112;45.624;11.760;2023-08-01T10:33:36;27.31;66.06
71649;SHT31;70112;45.624;11.760;2023-08-01T10:36:39;27.33;65.91
71649;SHT31;70112;45.624;11.760;2023-08-01T10:38:59;27.36;65.51
71649;SHT31;70112;45.624;11.760;2023-08-01T10:41:34;27.34;65.16
71649;SHT31;70112;45.624;11.760;2023-08-01T10:44:08;27.32;65.04
71649;SHT31;70112;45.624;11.760;2023-08-01T10:46:46;27.29;65.07
71649;SHT31;70112;45.624;11.760;2023-08-01T10:49:20;27.28;65.39
71649;SHT31;70112;45.624;11.760;2023-08-01T10:52:01;27.29;65.64
71649;SHT31;70112;45.624;11.760;2023-08-01T10:57:34;27.43;65.93
71649;SHT31;70112;45.624;11.760;2023-08-01T11:00:02;27.46;65.61
71649;SHT31;70112;45.624;11.760;2023-08-01T11:02:35;27.48;65.76
71649;SHT31;70112;45.624;11.760;2023-08-01T11:05:02;27.46;66.38
71649;SHT31;70112;45.624;11.760;2023-08-01T11:07:31;27.48;66.28
71649;SHT31;70112;45.624;11.760;2023-08-01T11:12:39;27.56;65.79
71649;SHT31;70112;45.624;11.760;2023-08-01T11:15:08;27.63;65.50
71649;SHT31;70112;45.624;11.760;2023-08-01T11:17:36;27.65;65.60
71649;SHT31;70112;45.624;11.760;2023-08-01T11:20:06;27.68;65.57
71649;SHT31;70112;45.624;11.760;2023-08-01T11:22:35;27.70;65.81
71649;SHT31;70112;45.624;11.760;2023-08-01T11:25:03;27.72;65.39
71649;SHT31;70112;45.624;11.760;2023-08-01T11:27:29;27.74;65.42
71649;SHT31;70112;45.624;11.760;2023-08-01T11:29:55;27.79;65.37
71649;SHT31;70112;45.624;11.760;2023-08-01T11:32:21;27.84;65.34
71649;SHT31;70112;45.624;11.760;2023-08-01T11:34:59;27.92;65.33
71649;SHT31;70112;45.624;11.760;2023-08-01T11:37:25;27.98;65.16
71649;SHT31;70112;45.624;11.760;2023-08-01T11:39:51;28.01;65.24
71649;SHT31;70112;45.624;11.760;2023-08-01T11:42:17;28.04;65.59
71649;SHT31;70112;45.624;11.760;2023-08-01T11:44:43;28.08;65.59
71649;SHT31;70112;45.624;11.760;2023-08-01T11:47:11;28.16;65.40
71649;SHT31;70112;45.624;11.760;2023-08-01T11:49:50;28.24;65.20
71649;SHT31;70112;45.624;11.760;2023-08-01T11:52:25;28.28;65.48
71649;SHT31;70112;45.624;11.760;2023-08-01T11:54:52;28.31;65.29
71649;SHT31;70112;45.624;11.760;2023-08-01T11:57:22;28.29;65.21
71649;SHT31;70112;45.624;11.760;2023-08-01T11:59:52;28.26;64.88
71649;SHT31;70112;45.624;11.760;2023-08-01T12:02:29;28.26;65.11
71649;SHT31;70112;45.624;11.760;2023-08-01T12:04:55;28.25;65.29
71649;SHT31;70112;45.624;11.760;2023-08-01T12:07:24;28.22;65.61
71649;SHT31;70112;45.624;11.760;2023-08-01T12:09:57;28.20;65.81
71649;SHT31;70112;45.624;11.760;2023-08-01T12:12:28;28.18;66.41
71649;SHT31;70112;45.624;11.760;2023-08-01T12:14:54;28.12;65.79
71649;SHT31;70112;45.624;11.760;2023-08-01T12:17:20;28.05;65.66
71649;SHT31;70112;45.624;11.760;2023-08-01T12:19:47;28.01;65.73
71649;SHT31;70112;45.624;11.760;2023-08-01T12:22:13;27.99;65.91
71649;SHT31;70112;45.624;11.760;2023-08-01T12:24:39;27.97;65.94
71649;SHT31;70112;45.624;11.760;2023-08-01T12:27:06;27.95;65.87
71649;SHT31;70112;45.624;11.760;2023-08-01T12:29:33;27.95;65.83
71649;SHT31;70112;45.624;11.760;2023-08-01T12:32:00;27.98;66.30
71649;SHT31;70112;45.624;11.760;2023-08-01T12:34:27;27.98;66.14
71649;SHT31;70112;45.624;11.760;2023-08-01T12:36:52;27.99;66.66
71649;SHT31;70112;45.624;11.760;2023-08-01T12:39:18;28.00;66.45
71649;SHT31;70112;45.624;11.760;2023-08-01T12:41:43;28.01;66.49
71649;SHT31;70112;45.624;11.760;2023-08-01T12:44:09;27.93;66.44
71649;SHT31;70112;45.624;11.760;2023-08-01T12:46:34;27.92;66.30
71649;SHT31;70112;45.624;11.760;2023-08-01T12:49:00;27.91;65.96
71649;SHT31;70112;45.624;11.760;2023-08-01T12:51:26;27.90;66.03
71649;SHT31;70112;45.624;11.760;2023-08-01T12:53:51;27.90;66.81
71649;SHT31;70112;45.624;11.760;2023-08-01T12:56:17;27.90;67.36
71649;SHT31;70112;45.624;11.760;2023-08-01T12:58:43;27.90;67.34
71649;SHT31;70112;45.624;11.760;2023-08-01T13:01:08;27.91;67.88
71649;SHT31;70112;45.624;11.760;2023-08-01T15:09:03;28.06;66.60
71649;SHT31;70112;45.624;11.760;2023-08-01T15:11:29;28.06;66.49
71649;SHT31;70112;45.624;11.760;2023-08-01T15:13:54;28.08;66.35
71649;SHT31;70112;45.624;11.760;2023-08-01T15:16:19;28.12;66.16
71649;SHT31;70112;45.624;11.760;2023-08-01T15:18:45;28.13;66.12
71649;SHT31;70112;45.624;11.760;2023-08-01T15:21:10;28.14;66.14
71649;SHT31;70112;45.624;11.760;2023-08-01T15:23:36;28.16;66.19
71649;SHT31;70112;45.624;11.760;2023-08-01T15:26:01;28.16;66.27
71649;SHT31;70112;45.624;11.760;2023-08-01T15:28:27;28.16;66.44
71649;SHT31;70112;45.624;11.760;2023-08-01T15:31:03;28.16;66.67
71649;SHT31;70112;45.624;11.760;2023-08-01T15:33:34;28.16;67.50
71649;SHT31;70112;45.624;11.760;2023-08-01T15:36:04;28.14;67.11
71649;SHT31;70112;45.624;11.760;2023-08-01T15:38:32;28.15;67.50
71649;SHT31;70112;45.624;11.760;2023-08-01T15:41:00;28.17;67.02
71649;SHT31;70112;45.624;11.760;2023-08-01T15:43:31;28.19;66.88
71649;SHT31;70112;45.624;11.760;2023-08-01T15:45:58;28.23;66.58
71649;SHT31;70112;45.624;11.760;2023-08-01T15:48:24;28.28;66.45
71649;SHT31;70112;45.624;11.760;2023-08-01T15:50:50;28.32;66.57
71649;SHT31;70112;45.624;11.760;2023-08-01T15:53:18;28.34;66.48
71649;SHT31;70112;45.624;11.760;2023-08-01T15:55:45;28.37;66.42
71649;SHT31;70112;45.624;11.760;2023-08-01T15:58:11;28.39;66.35
71649;SHT31;70112;45.624;11.760;2023-08-01T16:00:37;28.41;66.21
71649;SHT31;70112;45.624;11.760;2023-08-01T16:03:03;28.40;66.09
71649;SHT31;70112;45.624;11.760;2023-08-01T16:05:30;28.41;66.40
71649;SHT31;70112;45.624;11.760;2023-08-01T16:07:57;28.40;66.58
71649;SHT31;70112;45.624;11.760;2023-08-01T16:10:25;28.39;66.42
71649;SHT31;70112;45.624;11.760;2023-08-01T16:12:51;28.39;66.31
71649;SHT31;70112;45.624;11.760;2023-08-01T16:15:16;28.38;66.37
71649;SHT31;70112;45.624;11.760;2023-08-01T16:17:42;28.39;66.40
71649;SHT31;70112;45.624;11.760;2023-08-01T16:20:07;28.39;66.38
71649;SHT31;70112;45.624;11.760;2023-08-01T16:22:34;28.40;66.50
71649;SHT31;70112;45.624;11.760;2023-08-01T16:24:59;28.42;66.51
71649;SHT31;70112;45.624;11.760;2023-08-01T16:27:25;28.42;66.68
71649;SHT31;70112;45.624;11.760;2023-08-01T16:29:50;28.41;66.53
71649;SHT31;70112;45.624;11.760;2023-08-01T16:32:16;28.38;66.41
71649;SHT31;70112;45.624;11.760;2023-08-01T16:34:42;28.34;66.35
71649;SHT31;70112;45.624;11.760;2023-08-01T16:37:07;28.32;66.30
71649;SHT31;70112;45.624;11.760;2023-08-01T16:39:32;28.32;66.36
71649;SHT31;70112;45.624;11.760;2023-08-01T16:41:58;28.30;66.44
71649;SHT31;70112;45.624;11.760;2023-08-01T16:44:24;28.28;66.76
71649;SHT31;70112;45.624;11.760;2023-08-01T16:46:49;28.25;67.29
71649;SHT31;70112;45.624;11.760;2023-08-01T16:49:15;28.24;67.60
71649;SHT31;70112;45.624;11.760;2023-08-01T16:51:40;28.24;67.77
71649;SHT31;70112;45.624;11.760;2023-08-01T16:54:06;28.24;67.67
71649;SHT31;70112;45.624;11.760;2023-08-01T16:56:32;28.23;67.64
71649;SHT31;70112;45.624;11.760;2023-08-01T16:59:00;28.24;67.63
71649;SHT31;70112;45.624;11.760;2023-08-01T17:01:26;28.25;67.53
71649;SHT31;70112;45.624;11.760;2023-08-01T17:03:51;28.25;67.40
71649;SHT31;70112;45.624;11.760;2023-08-01T17:06:18;28.25;67.35
71649;SHT31;70112;45.624;11.760;2023-08-01T17:08:44;28.25;67.39
71649;SHT31;70112;45.624;11.760;2023-08-01T17:11:09;28.25;67.52
71649;SHT31;70112;45.624;11.760;2023-08-01T17:13:35;28.23;67.58
71649;SHT31;70112;45.624;11.760;2023-08-01T17:16:00;28.23;67.64
71649;SHT31;70112;45.624;11.760;2023-08-01T17:18:26;28.22;67.59
71649;SHT31;70112;45.624;11.760;2023-08-01T17:20:51;28.22;67.61
71649;SHT31;70112;45.624;11.760;2023-08-01T17:23:17;28.21;67.66